createdAt,value
2018-09-02T00:00:46.097Z,2.50
2018-09-02T00:03:14.186Z,2.03
2018-09-02T00:05:42.256Z,2.33
2018-09-02T00:08:10.353Z,2.43
2018-09-02T00:10:38.440Z,2.40
2018-09-02T00:13:06.528Z,2.03
2018-09-02T00:15:34.606Z,2.20
2018-09-02T00:18:02.722Z,2.10
2018-09-02T00:20:30.846Z,2.40
2018-09-02T00:22:58.903Z,2.33
2018-09-02T00:25:27.056Z,2.20
2018-09-02T00:27:55.134Z,2.33
2018-09-02T00:30:23.216Z,2.40
2018-09-02T00:32:51.305Z,2.30
2018-09-02T00:35:19.375Z,2.30
2018-09-02T00:37:47.651Z,1.93
2018-09-02T00:40:15.726Z,3.00
2018-09-02T00:42:43.898Z,2.73
2018-09-02T00:45:11.960Z,2.63
2018-09-02T00:47:40.046Z,2.53
2018-09-02T00:50:08.628Z,2.47
2018-09-02T00:52:37.123Z,2.90
2018-09-02T00:55:05.194Z,1.90
2018-09-02T00:57:33.274Z,2.43
2018-09-02T01:00:01.367Z,2.37
2018-09-02T01:02:30.901Z,2.20
2018-09-02T01:04:58.962Z,2.40
2018-09-02T01:07:27.034Z,2.30
2018-09-02T01:09:55.107Z,2.70
2018-09-02T01:12:23.188Z,2.40
2018-09-02T01:14:51.255Z,2.20
2018-09-02T01:17:19.334Z,2.47
2018-09-02T01:19:47.405Z,2.30
2018-09-02T01:22:15.473Z,2.40
2018-09-02T01:24:43.570Z,2.67
2018-09-02T01:27:11.635Z,2.37
2018-09-02T01:29:39.706Z,2.37
2018-09-02T01:32:07.775Z,2.60
2018-09-02T01:34:35.861Z,2.60
2018-09-02T01:37:03.962Z,2.43
2018-09-02T01:39:32.051Z,2.40
2018-09-02T01:42:00.126Z,2.40
2018-09-02T01:44:29.044Z,2.20
2018-09-02T01:46:57.113Z,2.60
2018-09-02T01:49:25.181Z,2.30
2018-09-02T01:51:53.287Z,2.47
2018-09-02T01:54:21.652Z,2.50
2018-09-02T01:56:49.732Z,2.70
2018-09-02T01:59:17.793Z,2.73
2018-09-02T02:01:45.870Z,1.93
2018-09-02T02:04:13.927Z,2.50
2018-09-02T02:06:42.124Z,2.37
2018-09-02T02:09:11.227Z,2.20
2018-09-02T02:11:39.495Z,2.20
2018-09-02T02:14:07.874Z,2.20
2018-09-02T02:16:35.994Z,2.20
2018-09-02T02:19:04.262Z,2.20
2018-09-02T02:21:32.322Z,2.17
2018-09-02T02:24:00.382Z,2.23
2018-09-02T02:26:28.458Z,2.20
2018-09-02T02:28:56.530Z,2.50
2018-09-02T02:31:24.623Z,2.20
2018-09-02T02:33:52.715Z,2.53
2018-09-02T02:36:20.901Z,2.60
2018-09-02T02:38:48.974Z,2.30
2018-09-02T02:41:17.051Z,2.40
2018-09-02T02:43:45.140Z,2.20
2018-09-02T02:46:13.211Z,2.40
2018-09-02T02:48:41.361Z,2.37
2018-09-02T02:51:09.431Z,2.70
2018-09-02T02:53:37.491Z,2.23
2018-09-02T02:56:05.994Z,2.50
2018-09-02T02:58:34.067Z,2.03
2018-09-02T03:01:02.163Z,2.70
2018-09-02T03:03:30.242Z,2.20
2018-09-02T03:05:58.312Z,2.83
2018-09-02T03:08:26.398Z,2.30
2018-09-02T03:10:54.533Z,2.30
2018-09-02T03:13:22.578Z,2.17
2018-09-02T03:15:50.672Z,1.93
2018-09-02T03:18:18.771Z,2.00
2018-09-02T03:20:46.862Z,2.60
2018-09-02T03:23:14.951Z,2.17
2018-09-02T03:25:43.028Z,2.10
2018-09-02T03:28:11.130Z,1.80
2018-09-02T03:30:39.207Z,2.10
2018-09-02T03:33:07.297Z,2.30
2018-09-02T03:35:35.386Z,2.27
2018-09-02T03:38:03.454Z,2.10
2018-09-02T03:40:31.542Z,1.90
2018-09-02T03:42:59.618Z,2.17
2018-09-02T03:45:27.692Z,2.17
2018-09-02T03:47:55.759Z,2.20
2018-09-02T03:50:23.819Z,2.10
2018-09-02T03:52:51.900Z,1.87
2018-09-02T03:55:19.955Z,2.20
2018-09-02T03:57:48.031Z,2.07
2018-09-02T04:00:16.102Z,2.00
2018-09-02T04:02:44.179Z,2.30
2018-09-02T04:05:12.269Z,2.03
2018-09-02T04:07:40.327Z,2.30
2018-09-02T04:10:08.386Z,2.00
2018-09-02T04:12:36.498Z,2.17
2018-09-02T04:15:04.879Z,2.23
2018-09-02T04:17:32.982Z,2.37
2018-09-02T04:20:01.087Z,1.87
2018-09-02T04:22:29.151Z,1.80
2018-09-02T04:24:57.234Z,2.27
2018-09-02T04:27:25.311Z,1.97
2018-09-02T04:29:53.770Z,1.87
2018-09-02T04:32:21.855Z,2.23
2018-09-02T04:34:49.935Z,2.23
2018-09-02T04:37:18.016Z,1.57
2018-09-02T04:39:46.086Z,2.53
2018-09-02T04:42:14.210Z,2.03
2018-09-02T04:44:42.282Z,2.17
2018-09-02T04:47:10.376Z,2.00
2018-09-02T04:49:38.446Z,2.10
2018-09-02T04:52:06.543Z,2.07
2018-09-02T04:54:34.802Z,2.30
2018-09-02T04:57:02.886Z,2.30
2018-09-02T04:59:30.947Z,2.03
2018-09-02T05:01:59.017Z,2.30
2018-09-02T05:04:27.087Z,1.87
2018-09-02T05:06:55.161Z,2.33
2018-09-02T05:09:23.252Z,2.00
2018-09-02T05:11:51.315Z,2.20
2018-09-02T05:14:19.513Z,1.93
2018-09-02T05:16:47.476Z,2.20
2018-09-02T05:19:15.919Z,2.50
2018-09-02T05:21:44.007Z,2.23
2018-09-02T05:24:12.085Z,2.20
2018-09-02T05:26:40.174Z,2.35
2018-09-02T05:29:08.247Z,2.40
2018-09-02T05:31:36.369Z,1.87
2018-09-02T05:34:04.460Z,2.27
2018-09-02T05:36:32.543Z,2.63
2018-09-02T05:39:00.615Z,1.83
2018-09-02T05:41:28.751Z,2.17
2018-09-02T05:43:56.829Z,1.93
2018-09-02T05:46:24.879Z,2.07
2018-09-02T05:48:52.955Z,2.10
2018-09-02T05:51:21.043Z,2.40
2018-09-02T05:53:49.131Z,2.43
2018-09-02T05:56:17.188Z,2.30
2018-09-02T05:58:45.279Z,2.40
2018-09-02T06:01:13.376Z,2.37
2018-09-02T06:03:41.483Z,2.50
2018-09-02T06:06:09.590Z,2.50
2018-09-02T06:08:37.675Z,2.80
2018-09-02T06:11:05.775Z,3.30
2018-09-02T06:13:33.856Z,3.17
2018-09-02T06:16:01.947Z,3.07
2018-09-02T06:18:30.031Z,3.33
2018-09-02T06:20:58.102Z,4.07
2018-09-02T06:23:26.193Z,4.27
2018-09-02T06:25:54.268Z,4.27
2018-09-02T06:28:22.427Z,4.70
2018-09-02T06:30:50.508Z,4.33
2018-09-02T06:33:18.587Z,4.60
2018-09-02T06:35:46.639Z,4.60
2018-09-02T06:38:14.742Z,4.77
2018-09-02T06:40:42.833Z,4.83
2018-09-02T06:43:10.899Z,5.40
2018-09-02T06:45:38.998Z,5.73
2018-09-02T06:48:07.359Z,5.70
2018-09-02T06:50:35.454Z,5.70
2018-09-02T06:53:03.550Z,5.20
2018-09-02T06:55:31.679Z,5.13
2018-09-02T06:57:59.739Z,6.58
2018-09-02T07:00:27.810Z,5.97
2018-09-02T07:02:55.907Z,5.60
2018-09-02T07:05:24.077Z,5.27
2018-09-02T07:07:52.155Z,5.70
2018-09-02T07:10:20.260Z,6.50
2018-09-02T07:12:48.330Z,6.13
2018-09-02T07:15:16.406Z,6.40
2018-09-02T07:17:44.525Z,6.23
2018-09-02T07:20:12.786Z,6.63
2018-09-02T07:22:40.747Z,7.23
2018-09-02T07:25:08.848Z,5.70
2018-09-02T07:27:36.938Z,6.77
2018-09-02T07:30:05.055Z,6.83
2018-09-02T07:32:33.147Z,6.70
2018-09-02T07:35:01.237Z,7.50
2018-09-02T07:37:29.323Z,7.40
2018-09-02T07:39:57.402Z,8.20
2018-09-02T07:42:25.471Z,7.60
2018-09-02T07:44:53.555Z,7.93
2018-09-02T07:47:21.687Z,8.60
2018-09-02T07:49:49.785Z,8.17
2018-09-02T07:52:17.875Z,7.83
2018-09-02T07:54:45.976Z,8.20
2018-09-02T07:57:14.091Z,7.70
2018-09-02T07:59:42.294Z,7.90
2018-09-02T08:02:10.371Z,6.90
2018-09-02T08:04:38.446Z,7.63
2018-09-02T08:07:06.563Z,7.57
2018-09-02T08:09:34.672Z,7.50
2018-09-02T08:12:02.743Z,7.50
2018-09-02T08:14:30.930Z,8.37
2018-09-02T08:16:59.023Z,7.13
2018-09-02T08:19:27.104Z,8.13
2018-09-02T08:21:55.187Z,7.00
2018-09-02T08:24:23.273Z,6.97
2018-09-02T08:26:51.357Z,8.23
2018-09-02T08:29:19.418Z,7.47
2018-09-02T08:31:47.651Z,6.73
2018-09-02T08:34:15.744Z,7.47
2018-09-02T08:36:43.839Z,7.33
2018-09-02T08:39:12.414Z,6.83
2018-09-02T08:41:41.787Z,6.97
2018-09-02T08:44:09.897Z,6.67
2018-09-02T08:46:38.428Z,7.67
2018-09-02T08:49:06.775Z,7.08
2018-09-02T08:51:34.899Z,6.03
2018-09-02T08:54:02.971Z,7.07
2018-09-02T08:56:31.218Z,6.67
2018-09-02T08:58:59.282Z,6.58
2018-09-02T09:01:27.441Z,6.42
2018-09-02T09:03:55.508Z,6.30
2018-09-02T09:06:24.019Z,6.42
2018-09-02T09:08:52.387Z,6.53
2018-09-02T09:11:20.328Z,5.95
2018-09-02T09:13:48.407Z,6.47
2018-09-02T09:16:16.520Z,6.40
2018-09-02T09:18:44.587Z,6.45
2018-09-02T09:21:12.711Z,5.72
2018-09-02T09:23:40.771Z,5.92
2018-09-02T09:26:08.856Z,5.15
2018-09-02T09:28:36.919Z,6.05
2018-09-02T09:31:05.195Z,4.83
2018-09-02T09:33:33.259Z,5.72
2018-09-02T09:36:01.354Z,4.72
2018-09-02T09:38:29.433Z,5.12
2018-09-02T09:40:57.491Z,4.37
2018-09-02T09:43:25.558Z,5.22
2018-09-02T09:45:53.658Z,4.72
2018-09-02T09:48:21.767Z,4.05
2018-09-02T09:50:49.778Z,3.70
2018-09-02T09:53:17.854Z,7.35
2018-09-02T09:55:45.920Z,4.50
2018-09-02T09:58:13.976Z,4.15
2018-09-02T10:00:47.582Z,3.45
2018-09-02T10:03:15.763Z,3.92
2018-09-02T10:05:43.852Z,3.65
2018-09-02T10:08:11.988Z,2.58
2018-09-02T10:10:40.435Z,2.72
2018-09-02T10:13:08.560Z,2.52
2018-09-02T10:15:37.330Z,2.20
2018-09-02T10:18:05.504Z,2.35
2018-09-02T10:20:33.642Z,2.62
2018-09-02T10:23:02.738Z,2.80
2018-09-02T10:25:30.816Z,2.92
2018-09-02T10:27:59.235Z,3.12
2018-09-02T10:30:27.336Z,2.70
2018-09-02T10:32:55.799Z,2.72
2018-09-02T10:35:23.871Z,2.45
2018-09-02T10:37:51.947Z,2.42
2018-09-02T10:40:20.034Z,2.62
2018-09-02T10:42:48.338Z,2.40
2018-09-02T10:45:16.573Z,2.30
2018-09-02T10:47:44.639Z,2.37
2018-09-02T10:50:12.963Z,2.50
2018-09-02T10:52:41.091Z,2.02
2018-09-02T10:55:09.239Z,2.00
2018-09-02T10:57:37.299Z,1.87
2018-09-02T11:00:06.739Z,2.00
2018-09-02T11:02:34.825Z,2.00
2018-09-02T11:05:02.999Z,2.08
2018-09-02T11:07:31.105Z,1.92
2018-09-02T11:09:59.158Z,2.08
2018-09-02T11:12:27.235Z,2.52
2018-09-02T11:14:55.314Z,2.10
2018-09-02T11:17:23.411Z,2.20
2018-09-02T11:19:51.468Z,2.15
2018-09-02T11:22:19.546Z,2.02
2018-09-02T11:24:47.618Z,2.35
2018-09-02T11:27:15.678Z,2.72
2018-09-02T11:29:43.823Z,3.17
2018-09-02T11:32:11.898Z,2.58
2018-09-02T11:34:39.975Z,2.40
2018-09-02T11:37:08.047Z,2.40
2018-09-02T11:39:36.120Z,3.17
2018-09-02T11:42:04.186Z,2.58
2018-09-02T11:44:32.273Z,2.62
2018-09-02T11:47:00.402Z,1.98
2018-09-02T11:49:28.455Z,2.58
2018-09-02T11:51:56.548Z,2.37
2018-09-02T11:54:24.607Z,2.45
2018-09-02T11:56:52.691Z,2.30
2018-09-02T11:59:20.763Z,2.27
2018-09-02T12:01:48.860Z,2.37
2018-09-02T12:04:16.935Z,2.02
2018-09-02T12:06:45.118Z,2.50
2018-09-02T12:09:13.196Z,2.60
2018-09-02T12:11:41.359Z,2.37
2018-09-02T12:14:09.403Z,2.20
2018-09-02T12:16:37.478Z,2.40
2018-09-02T12:19:05.647Z,2.75
2018-09-02T12:21:33.710Z,2.55
2018-09-02T12:24:01.789Z,2.35
2018-09-02T12:26:29.854Z,2.30
2018-09-02T12:28:57.938Z,2.55
2018-09-02T12:31:26.055Z,2.45
2018-09-02T12:33:54.080Z,2.62
2018-09-02T12:36:22.159Z,2.50
2018-09-02T12:38:50.245Z,2.50
2018-09-02T12:41:18.428Z,2.67
2018-09-02T12:43:46.539Z,2.87
2018-09-02T12:46:14.598Z,2.20
2018-09-02T12:48:42.708Z,2.12
2018-09-02T12:51:10.781Z,2.22
2018-09-02T12:53:38.861Z,2.42
2018-09-02T12:56:06.971Z,2.08
2018-09-02T12:58:35.037Z,2.08
2018-09-02T13:01:03.130Z,2.33
2018-09-02T13:03:31.182Z,2.35
2018-09-02T13:05:59.331Z,2.65
2018-09-02T13:08:27.403Z,2.02
2018-09-02T13:10:55.795Z,1.92
2018-09-02T13:13:23.959Z,2.10
2018-09-02T13:15:52.019Z,2.27
2018-09-02T13:18:20.148Z,1.90
2018-09-02T13:20:48.231Z,2.20
2018-09-02T13:23:16.326Z,2.40
2018-09-02T13:25:44.386Z,2.20
2018-09-02T13:28:12.476Z,2.10
2018-09-02T13:30:40.715Z,2.12
2018-09-02T13:33:08.805Z,2.02
2018-09-02T13:35:36.888Z,2.85
2018-09-02T13:38:04.954Z,2.30
2018-09-02T13:40:33.038Z,2.62
2018-09-02T13:43:01.119Z,2.22
2018-09-02T13:45:29.203Z,2.50
2018-09-02T13:47:57.275Z,2.20
2018-09-02T13:50:25.348Z,2.00
2018-09-02T13:52:53.418Z,2.47
2018-09-02T13:55:21.475Z,2.15
2018-09-02T13:57:49.563Z,2.40
2018-09-02T14:00:17.633Z,2.35
2018-09-02T14:02:45.979Z,2.40
2018-09-02T14:05:14.118Z,2.40
2018-09-02T14:07:42.235Z,1.70
2018-09-02T14:10:10.261Z,2.53
2018-09-02T14:12:38.322Z,2.50
2018-09-02T14:15:06.611Z,2.37
2018-09-02T14:17:34.719Z,2.08
2018-09-02T14:20:02.931Z,2.30
2018-09-02T14:22:31.218Z,2.25
2018-09-02T14:24:59.291Z,2.08
2018-09-02T14:27:27.348Z,2.35
2018-09-02T14:29:55.413Z,2.05
2018-09-02T14:32:23.493Z,2.62
2018-09-02T14:34:51.561Z,2.58
2018-09-02T14:37:19.654Z,2.65
2018-09-02T14:39:47.715Z,2.40
2018-09-02T14:42:15.815Z,3.08
2018-09-02T14:44:43.915Z,2.77
2018-09-02T14:47:11.995Z,2.45
2018-09-02T14:49:40.089Z,2.52
2018-09-02T14:52:08.206Z,2.40
2018-09-02T14:54:36.274Z,2.50
2018-09-02T14:57:04.342Z,2.05
2018-09-02T14:59:32.442Z,2.27
2018-09-02T15:02:00.523Z,2.50
2018-09-02T15:04:28.592Z,2.30
2018-09-02T15:06:56.679Z,2.22
2018-09-02T15:09:24.783Z,2.02
2018-09-02T15:11:52.857Z,1.98
2018-09-02T15:14:21.011Z,2.60
2018-09-02T15:16:49.087Z,2.98
2018-09-02T15:19:17.139Z,2.33
2018-09-02T15:21:45.213Z,2.45
2018-09-02T15:24:13.288Z,2.20
2018-09-02T15:26:41.374Z,2.55
2018-09-02T15:29:09.452Z,2.30
2018-09-02T15:31:37.555Z,2.62
2018-09-02T15:34:05.888Z,3.67
2018-09-02T15:36:34.000Z,2.77
2018-09-02T15:39:02.074Z,2.55
2018-09-02T15:41:30.151Z,2.22
2018-09-02T15:43:58.272Z,2.55
2018-09-02T15:46:26.300Z,2.40
2018-09-02T15:48:54.371Z,2.30
2018-09-02T15:51:22.447Z,2.40
2018-09-02T15:53:50.648Z,2.55
2018-09-02T15:56:18.727Z,2.33
2018-09-02T15:58:46.798Z,2.90
2018-09-02T16:01:14.888Z,6.72
2018-09-02T16:03:42.993Z,8.20
2018-09-02T16:06:11.059Z,4.10
2018-09-02T16:08:39.160Z,2.98
2018-09-02T16:11:07.234Z,2.47
2018-09-02T16:13:35.359Z,3.35
2018-09-02T16:16:03.446Z,1.95
2018-09-02T16:18:31.526Z,2.25
2018-09-02T16:20:59.696Z,2.33
2018-09-02T16:23:27.753Z,2.22
2018-09-02T16:25:55.823Z,2.10
2018-09-02T16:28:23.906Z,2.37
2018-09-02T16:30:51.988Z,2.10
2018-09-02T16:33:20.066Z,1.85
2018-09-02T16:35:48.168Z,1.98
2018-09-02T16:38:16.294Z,2.83
2018-09-02T16:40:44.366Z,1.67
2018-09-02T16:43:12.459Z,2.33
2018-09-02T16:45:40.552Z,2.22
2018-09-02T16:48:08.727Z,1.98
2018-09-02T16:50:36.817Z,2.00
2018-09-02T16:53:04.891Z,1.95
2018-09-02T16:55:32.980Z,2.70
2018-09-02T16:58:01.051Z,2.12
2018-09-02T17:00:29.099Z,2.60
2018-09-02T17:02:57.674Z,2.40
2018-09-02T17:05:25.782Z,2.27
2018-09-02T17:07:53.864Z,2.00
2018-09-02T17:10:21.952Z,2.00
2018-09-02T17:12:50.394Z,1.95
2018-09-02T17:15:18.427Z,1.70
2018-09-02T17:17:46.486Z,1.85
2018-09-02T17:20:48.670Z,1.70
2018-09-02T17:23:17.097Z,2.35
2018-09-02T17:25:45.497Z,2.00
2018-09-02T17:28:13.817Z,2.00
2018-09-02T17:30:41.940Z,2.25
2018-09-02T17:33:11.298Z,1.90
2018-09-02T17:35:39.367Z,2.20
2018-09-02T17:38:07.481Z,2.05
2018-09-02T17:40:35.583Z,1.85
2018-09-02T17:43:03.699Z,2.52
2018-09-02T17:45:31.743Z,2.20
2018-09-02T17:47:59.827Z,2.33
2018-09-02T17:50:27.914Z,2.05
2018-09-02T17:52:55.983Z,2.20
2018-09-02T17:55:24.059Z,2.25
2018-09-02T17:57:52.123Z,2.20
2018-09-02T18:00:22.435Z,1.92
2018-09-02T18:02:50.499Z,2.12
2018-09-02T18:05:18.564Z,2.20
2018-09-02T18:07:46.693Z,2.10
2018-09-02T18:10:14.767Z,2.30
2018-09-02T18:12:42.998Z,1.92
2018-09-02T18:15:11.063Z,2.42
2018-09-02T18:17:39.132Z,2.00
2018-09-02T18:20:07.224Z,3.00
2018-09-02T18:22:35.287Z,3.40
2018-09-02T18:25:03.374Z,2.62
2018-09-02T18:27:33.669Z,2.40
2018-09-02T18:30:01.767Z,2.50
2018-09-02T18:32:30.956Z,2.45
2018-09-02T18:35:00.071Z,2.40
2018-09-02T18:37:28.148Z,2.50
2018-09-02T18:39:56.750Z,2.62
2018-09-02T18:42:24.955Z,2.20
2018-09-02T18:44:54.840Z,1.87
2018-09-02T18:47:22.906Z,1.98
2018-09-02T18:49:51.127Z,1.75
2018-09-02T18:52:19.191Z,2.00
2018-09-02T18:54:47.258Z,2.15
2018-09-02T18:57:15.336Z,1.82
2018-09-02T18:59:43.498Z,1.90
2018-09-02T19:02:11.579Z,1.95
2018-09-02T19:04:39.681Z,2.12
2018-09-02T19:07:08.195Z,2.50
2018-09-02T19:09:36.594Z,1.90
2018-09-02T19:12:04.678Z,2.37
2018-09-02T19:14:32.773Z,2.17
2018-09-02T19:17:00.832Z,2.20
2018-09-02T19:19:28.887Z,2.55
2018-09-02T19:21:56.962Z,2.70
2018-09-02T19:24:25.026Z,2.40
2018-09-02T19:26:53.096Z,2.20
2018-09-02T19:29:21.203Z,2.47
2018-09-02T19:31:49.753Z,2.80
2018-09-02T19:34:17.828Z,2.50
2018-09-02T19:36:45.915Z,2.12
2018-09-02T19:39:13.995Z,2.20
2018-09-02T19:41:42.119Z,2.40
2018-09-02T19:44:10.227Z,2.58
2018-09-02T19:46:38.312Z,2.60
2018-09-02T19:49:06.962Z,2.50
2018-09-02T19:51:35.109Z,2.83
2018-09-02T19:54:03.155Z,2.75
2018-09-02T19:56:31.231Z,2.50
2018-09-02T19:58:59.294Z,2.30
2018-09-02T20:01:27.363Z,2.92
2018-09-02T20:03:55.479Z,2.90
2018-09-02T20:06:23.549Z,2.57
2018-09-02T20:08:51.630Z,2.72
2018-09-02T20:11:19.706Z,2.70
2018-09-02T20:13:47.816Z,2.33
2018-09-02T20:16:15.879Z,2.20
2018-09-02T20:18:43.994Z,2.07
2018-09-02T20:21:12.051Z,2.50
2018-09-02T20:23:40.158Z,2.63
2018-09-02T20:26:08.211Z,2.80
2018-09-02T20:28:36.279Z,3.07
2018-09-02T20:31:04.582Z,2.87
2018-09-02T20:33:32.683Z,2.80
2018-09-02T20:36:00.800Z,2.97
2018-09-02T20:38:28.863Z,2.33
2018-09-02T20:40:56.942Z,2.57
2018-09-02T20:43:25.063Z,3.13
2018-09-02T20:45:53.111Z,3.63
2018-09-02T20:48:21.191Z,3.50
2018-09-02T20:50:49.259Z,3.23
2018-09-02T20:53:17.451Z,3.63
2018-09-02T20:55:45.546Z,3.60
2018-09-02T20:58:13.663Z,3.45
2018-09-02T21:00:42.418Z,3.45
2018-09-02T21:03:10.483Z,3.17
2018-09-02T21:05:38.695Z,3.30
2018-09-02T21:08:06.892Z,2.77
2018-09-02T21:10:34.990Z,2.90
2018-09-02T21:13:03.056Z,3.27
2018-09-02T21:15:31.130Z,3.10
2018-09-02T21:17:59.239Z,2.90
2018-09-02T21:20:27.330Z,3.13
2018-09-02T21:22:55.435Z,3.33
2018-09-02T21:25:23.824Z,3.50
2018-09-02T21:27:51.891Z,2.70
2018-09-02T21:30:19.995Z,2.90
2018-09-02T21:32:48.163Z,2.77
2018-09-02T21:35:16.974Z,3.15
2018-09-02T21:37:45.065Z,3.00
2018-09-02T21:40:13.129Z,3.23
2018-09-02T21:42:41.239Z,2.53
2018-09-02T21:45:09.334Z,2.43
2018-09-02T21:47:37.440Z,2.97
2018-09-02T21:50:05.875Z,2.90
2018-09-02T21:52:34.235Z,3.07
2018-09-02T21:55:02.337Z,3.40
2018-09-02T21:57:30.390Z,2.93
2018-09-02T21:59:58.483Z,3.00
2018-09-02T22:02:26.596Z,3.20
2018-09-02T22:04:54.728Z,3.17
2018-09-02T22:07:22.977Z,3.80
2018-09-02T22:09:51.032Z,3.40
2018-09-02T22:12:19.240Z,4.00
2018-09-02T22:14:47.353Z,4.03
2018-09-02T22:17:15.398Z,3.10
2018-09-02T22:19:43.669Z,3.00
2018-09-02T22:22:11.761Z,2.90
2018-09-02T22:24:39.834Z,3.10
2018-09-02T22:27:07.931Z,3.73
2018-09-02T22:29:36.020Z,3.33
2018-09-02T22:32:04.082Z,2.90
2018-09-02T22:34:32.311Z,3.33
2018-09-02T22:37:00.582Z,2.97
2018-09-02T22:39:28.686Z,2.97
2018-09-02T22:41:56.795Z,3.03
2018-09-02T22:44:24.814Z,3.40
2018-09-02T22:46:52.878Z,3.43
2018-09-02T22:49:20.987Z,3.40
2018-09-02T22:51:49.079Z,3.50
2018-09-02T22:54:17.142Z,3.93
2018-09-02T22:56:45.203Z,3.67
2018-09-02T22:59:13.275Z,2.97
2018-09-02T23:01:41.400Z,3.20
2018-09-02T23:04:09.472Z,3.43
2018-09-02T23:06:37.597Z,3.85
2018-09-02T23:09:06.642Z,3.27
2018-09-02T23:11:34.706Z,3.67
2018-09-02T23:14:02.795Z,3.70
2018-09-02T23:16:31.329Z,3.93
2018-09-02T23:18:59.431Z,4.07
2018-09-02T23:21:27.504Z,3.87
2018-09-02T23:23:55.574Z,3.83
2018-09-02T23:26:23.626Z,4.10
2018-09-02T23:28:51.694Z,3.67
2018-09-02T23:31:19.785Z,3.47
2018-09-02T23:33:47.867Z,4.27
2018-09-02T23:36:15.934Z,3.70
2018-09-02T23:38:44.006Z,4.20
2018-09-02T23:41:12.086Z,3.50
2018-09-02T23:43:40.190Z,3.77
2018-09-02T23:46:08.286Z,4.27
2018-09-02T23:48:36.346Z,4.10
2018-09-02T23:51:04.490Z,4.20
2018-09-02T23:53:32.554Z,4.33
2018-09-02T23:56:00.615Z,4.72
2018-09-02T23:58:28.708Z,4.23
